createdAt,value
2022-08-19T00:08:25.675Z,99.90
2022-08-19T00:10:52.462Z,99.90
2022-08-19T00:13:19.671Z,99.90
2022-08-19T00:15:46.512Z,99.90
2022-08-19T00:18:13.219Z,99.90
2022-08-19T00:20:41.505Z,99.90
2022-08-19T00:23:08.236Z,99.90
2022-08-19T00:25:34.909Z,99.90
2022-08-19T00:28:01.647Z,99.90
2022-08-19T00:30:28.744Z,99.90
2022-08-19T00:32:56.222Z,99.90
2022-08-19T00:35:24.351Z,99.90
2022-08-19T00:37:51.520Z,99.90
2022-08-19T00:40:20.303Z,99.90
2022-08-19T00:42:51.622Z,99.90
2022-08-19T00:45:23.619Z,99.90
2022-08-19T00:47:50.393Z,99.90
2022-08-19T00:50:22.494Z,99.90
2022-08-19T00:52:52.121Z,99.90
2022-08-19T00:55:24.512Z,99.90
2022-08-19T00:57:57.183Z,99.90
2022-08-19T01:00:25.567Z,99.90
2022-08-19T01:02:53.362Z,99.90
2022-08-19T01:05:28.753Z,99.90
2022-08-19T01:07:58.240Z,99.90
2022-08-19T01:10:27.953Z,99.90
2022-08-19T01:13:03.201Z,99.90
2022-08-19T01:19:44.822Z,99.90
2022-08-19T01:22:33.309Z,99.90
2022-08-19T01:25:00.932Z,99.90
2022-08-19T01:27:29.899Z,99.90
2022-08-19T01:30:02.168Z,99.90
2022-08-19T01:32:33.253Z,99.90
2022-08-19T01:35:03.583Z,99.90
2022-08-19T01:37:31.587Z,99.90
2022-08-19T01:39:58.893Z,99.90
2022-08-19T01:42:30.602Z,99.90
2022-08-19T01:44:57.973Z,99.90
2022-08-19T01:47:25.080Z,99.90
2022-08-19T01:49:52.006Z,99.90
2022-08-19T01:52:18.756Z,99.90
2022-08-19T01:54:45.413Z,99.90
2022-08-19T01:57:15.419Z,99.90
2022-08-19T01:59:43.603Z,99.90
2022-08-19T02:02:10.310Z,99.90
2022-08-19T02:04:39.693Z,99.90
2022-08-19T02:07:08.891Z,99.90
2022-08-19T02:09:36.201Z,99.90
2022-08-19T02:12:03.202Z,99.90
2022-08-19T02:14:29.925Z,99.90
2022-08-19T02:16:56.994Z,99.90
2022-08-19T02:19:23.673Z,99.90
2022-08-19T02:21:50.403Z,99.90
2022-08-19T02:24:17.339Z,99.90
2022-08-19T02:26:44.071Z,99.90
2022-08-19T02:29:10.813Z,99.90
2022-08-19T02:31:44.293Z,99.90
2022-08-19T02:34:11.044Z,99.90
2022-08-19T02:36:44.294Z,99.90
2022-08-19T02:43:11.604Z,99.90
2022-08-19T02:45:42.761Z,99.90
2022-08-19T02:48:14.871Z,99.90
2022-08-19T02:50:55.347Z,99.90
2022-08-19T02:53:29.225Z,99.90
2022-08-19T02:55:56.135Z,99.90
2022-08-19T02:58:25.182Z,99.90
2022-08-19T03:03:22.925Z,99.90
2022-08-19T03:05:56.450Z,99.90
2022-08-19T03:08:25.318Z,99.90
2022-08-19T03:10:53.872Z,99.90
2022-08-19T03:13:27.322Z,99.90
2022-08-19T03:15:54.047Z,99.90
2022-08-19T03:18:23.386Z,99.90
2022-08-19T03:20:55.540Z,99.90
2022-08-19T03:23:23.048Z,99.90
2022-08-19T03:26:02.955Z,99.90
2022-08-19T03:28:39.361Z,99.90
2022-08-19T03:31:43.936Z,99.90
2022-08-19T03:34:01.666Z,99.90
2022-08-19T03:36:30.587Z,99.90
2022-08-19T03:39:00.103Z,99.90
2022-08-19T03:41:44.389Z,99.90
2022-08-19T03:44:12.650Z,99.90
2022-08-19T03:46:46.308Z,99.90
2022-08-19T03:49:14.296Z,99.90
2022-08-19T03:51:43.950Z,99.90
2022-08-19T03:54:13.721Z,99.90
2022-08-19T03:56:43.281Z,99.90
2022-08-19T03:59:15.167Z,99.90
2022-08-19T04:01:42.162Z,99.90
2022-08-19T04:04:09.536Z,99.90
2022-08-19T04:06:39.871Z,99.90
2022-08-19T04:09:10.466Z,99.90
2022-08-19T04:11:44.285Z,99.90
2022-08-19T04:14:15.035Z,99.90
2022-08-19T04:16:42.606Z,99.90
2022-08-19T04:19:09.436Z,99.90
2022-08-19T04:21:36.174Z,99.90
2022-08-19T04:24:04.130Z,99.90
2022-08-19T04:26:40.628Z,99.90
2022-08-19T04:29:12.793Z,99.90
2022-08-19T04:31:41.908Z,99.90
2022-08-19T04:34:13.666Z,99.90
2022-08-19T04:36:42.889Z,99.90
2022-08-19T04:39:13.795Z,99.90
2022-08-19T04:45:03.402Z,99.90
2022-08-19T04:48:34.421Z,99.90
2022-08-19T04:51:55.406Z,99.90
2022-08-19T04:55:24.429Z,99.90
2022-08-19T05:01:51.257Z,99.90
2022-08-19T05:12:16.427Z,99.90
2022-08-19T05:14:43.181Z,99.90
2022-08-19T05:20:15.821Z,99.90
2022-08-19T05:22:45.268Z,99.90
2022-08-19T05:25:16.403Z,99.90
2022-08-19T05:27:43.636Z,99.90
2022-08-19T05:30:11.904Z,99.90
2022-08-19T05:32:39.999Z,99.90
2022-08-19T05:35:07.658Z,99.90
2022-08-19T05:37:35.035Z,99.90
2022-08-19T05:40:02.436Z,99.90
2022-08-19T05:42:29.262Z,99.90
2022-08-19T05:44:57.823Z,99.90
2022-08-19T05:47:24.768Z,99.90
2022-08-19T05:49:51.911Z,99.90
2022-08-19T05:52:25.858Z,99.90
2022-08-19T05:54:55.713Z,99.90
2022-08-19T05:57:23.332Z,99.90
2022-08-19T05:59:57.668Z,99.90
2022-08-19T06:02:24.932Z,99.90
2022-08-19T06:04:51.866Z,99.90
2022-08-19T06:07:18.539Z,99.90
2022-08-19T06:09:59.639Z,99.90
2022-08-19T06:12:33.880Z,99.90
2022-08-19T06:15:02.509Z,99.90
2022-08-19T06:17:31.291Z,99.90
2022-08-19T06:19:59.228Z,99.90
2022-08-19T06:22:26.253Z,99.90
2022-08-19T06:24:54.710Z,99.90
2022-08-19T06:27:22.318Z,99.90
2022-08-19T06:29:49.345Z,99.90
2022-08-19T06:32:17.778Z,99.90
2022-08-19T06:34:44.808Z,99.90
2022-08-19T06:37:12.498Z,99.90
2022-08-19T06:39:41.348Z,99.90
2022-08-19T06:42:12.659Z,99.90
2022-08-19T06:44:43.391Z,99.90
2022-08-19T06:47:23.972Z,99.90
2022-08-19T06:50:05.405Z,99.90
2022-08-19T06:52:36.750Z,99.90
2022-08-19T06:55:06.949Z,99.90
2022-08-19T06:57:34.784Z,99.90
2022-08-19T07:00:01.953Z,99.90
2022-08-19T07:02:28.900Z,99.90
2022-08-19T07:04:58.324Z,99.90
2022-08-19T07:07:26.300Z,99.90
2022-08-19T07:09:59.318Z,99.90
2022-08-19T07:12:35.546Z,99.90
2022-08-19T07:15:04.675Z,99.90
2022-08-19T07:17:31.836Z,99.90
2022-08-19T07:20:05.393Z,99.90
2022-08-19T07:22:34.982Z,99.90
2022-08-19T07:25:04.926Z,99.90
2022-08-19T07:27:33.442Z,99.90
2022-08-19T07:30:01.283Z,99.90
2022-08-19T07:32:28.300Z,99.90
2022-08-19T07:34:56.411Z,99.90
2022-08-19T07:37:25.213Z,99.90
2022-08-19T07:39:53.499Z,99.90
2022-08-19T07:42:21.941Z,99.90
2022-08-19T07:44:50.504Z,99.90
2022-08-19T07:47:47.701Z,99.90
2022-08-19T07:50:09.790Z,99.90
2022-08-19T07:52:39.537Z,99.90
2022-08-19T07:55:07.923Z,99.90
2022-08-19T07:57:55.045Z,99.90
2022-08-19T08:00:24.298Z,99.90
2022-08-19T08:02:52.200Z,99.90
2022-08-19T08:05:43.661Z,99.90
2022-08-19T08:08:43.840Z,99.90
2022-08-19T08:11:15.467Z,99.90
2022-08-19T08:13:42.842Z,99.90
2022-08-19T08:16:13.883Z,99.90
2022-08-19T08:18:43.170Z,99.90
2022-08-19T08:21:10.237Z,99.90
2022-08-19T08:23:37.137Z,99.90
2022-08-19T08:26:06.533Z,99.90
2022-08-19T08:28:33.432Z,99.90
2022-08-19T08:31:00.227Z,99.90
2022-08-19T08:33:33.159Z,99.90
2022-08-19T08:36:01.866Z,99.90
2022-08-19T08:38:38.443Z,99.90
2022-08-19T08:41:23.742Z,99.90
2022-08-19T08:43:53.079Z,99.90
2022-08-19T08:46:30.779Z,99.90
2022-08-19T08:49:10.632Z,99.90
2022-08-19T08:52:00.050Z,99.90
2022-08-19T08:54:34.712Z,99.90
2022-08-19T08:57:08.337Z,97.70
2022-08-19T08:59:40.003Z,98.90
2022-08-19T09:02:06.828Z,96.00
2022-08-19T09:04:36.183Z,95.80
2022-08-19T09:07:38.774Z,95.70
2022-08-19T09:10:15.739Z,91.10
2022-08-19T09:13:09.399Z,91.10
2022-08-19T09:15:45.353Z,91.70
2022-08-19T09:18:15.436Z,92.70
2022-08-19T09:20:48.491Z,95.10
2022-08-19T09:23:15.380Z,92.00
2022-08-19T09:25:42.344Z,92.70
2022-08-19T09:28:21.954Z,89.30
2022-08-19T09:30:49.803Z,89.70
2022-08-19T09:33:21.038Z,90.00
2022-08-19T09:35:53.133Z,90.70
2022-08-19T09:38:21.480Z,92.40
2022-08-19T09:40:48.467Z,88.40
2022-08-19T09:43:15.478Z,90.90
2022-08-19T09:46:01.393Z,90.70
2022-08-19T09:48:28.338Z,90.90
2022-08-19T09:50:55.402Z,91.80
2022-08-19T09:53:25.412Z,87.70
2022-08-19T09:55:52.527Z,86.60
2022-08-19T09:58:23.415Z,81.10
2022-08-19T10:00:53.357Z,79.40
2022-08-19T10:03:20.785Z,74.70
2022-08-19T10:05:54.539Z,75.50
2022-08-19T10:08:26.785Z,76.80
2022-08-19T10:10:55.855Z,73.80
2022-08-19T10:13:27.311Z,73.50
2022-08-19T10:15:57.134Z,71.60
2022-08-19T10:18:25.370Z,73.20
2022-08-19T10:20:54.720Z,73.20
2022-08-19T10:23:22.223Z,72.00
2022-08-19T10:25:50.586Z,71.50
2022-08-19T10:28:19.100Z,72.60
2022-08-19T10:30:46.868Z,70.20
2022-08-19T10:33:14.936Z,71.40
2022-08-19T10:35:56.570Z,70.60
2022-08-19T10:38:31.781Z,71.60
2022-08-19T10:41:11.644Z,71.80
2022-08-19T10:43:39.272Z,71.20
2022-08-19T10:46:09.529Z,71.50
2022-08-19T10:48:41.832Z,71.90
2022-08-19T10:51:27.928Z,71.20
2022-08-19T10:53:56.446Z,71.20
2022-08-19T10:56:42.710Z,71.40
2022-08-19T10:59:10.329Z,73.60
2022-08-19T11:01:37.152Z,74.00
2022-08-19T11:04:05.933Z,70.30
2022-08-19T11:06:33.464Z,71.40
2022-08-19T11:09:01.117Z,71.30
2022-08-19T11:11:29.414Z,72.10
2022-08-19T11:13:56.620Z,72.60
2022-08-19T11:16:27.478Z,70.50
2022-08-19T11:19:02.156Z,69.60
2022-08-19T11:21:32.632Z,70.70
2022-08-19T11:24:05.069Z,72.00
2022-08-19T11:26:32.385Z,71.90
2022-08-19T11:29:00.449Z,70.80
2022-08-19T11:31:33.534Z,70.30
2022-08-19T11:34:02.602Z,70.00
2022-08-19T11:36:30.694Z,69.90
2022-08-19T11:38:57.586Z,68.60
2022-08-19T11:41:25.590Z,69.90
2022-08-19T11:43:56.040Z,71.80
2022-08-19T11:46:25.240Z,70.90
2022-08-19T11:48:51.962Z,69.80
2022-08-19T11:51:22.703Z,69.80
2022-08-19T11:53:51.605Z,68.40
2022-08-19T11:56:20.042Z,68.70
2022-08-19T11:58:47.729Z,68.40
2022-08-19T12:01:17.436Z,69.50
2022-08-19T12:03:46.709Z,68.30
2022-08-19T12:06:14.744Z,67.10
2022-08-19T12:08:46.017Z,67.00
2022-08-19T12:11:14.640Z,67.80
2022-08-19T12:13:54.861Z,68.30
2022-08-19T12:16:25.172Z,66.70
2022-08-19T12:18:52.428Z,69.10
2022-08-19T12:21:29.494Z,68.90
2022-08-19T12:23:58.278Z,65.70
2022-08-19T12:26:26.803Z,66.40
2022-08-19T12:28:54.569Z,65.30
2022-08-19T12:31:21.805Z,65.20
2022-08-19T12:33:48.665Z,67.20
2022-08-19T12:36:16.943Z,67.50
2022-08-19T12:38:45.240Z,67.50
2022-08-19T12:41:14.379Z,67.10
2022-08-19T12:43:42.139Z,66.40
2022-08-19T12:46:10.990Z,69.20
2022-08-19T12:48:40.220Z,68.70
2022-08-19T12:51:16.102Z,66.50
2022-08-19T12:53:43.503Z,66.10
2022-08-19T12:56:12.818Z,64.70
2022-08-19T12:58:40.389Z,65.30
2022-08-19T13:01:10.027Z,66.70
2022-08-19T13:03:40.572Z,68.20
2022-08-19T13:06:09.040Z,66.20
2022-08-19T13:08:36.625Z,67.10
2022-08-19T13:11:16.145Z,65.30
2022-08-19T13:13:44.243Z,64.80
2022-08-19T13:16:12.813Z,66.60
2022-08-19T13:18:41.022Z,65.90
2022-08-19T13:21:10.254Z,65.30
2022-08-19T13:23:37.000Z,65.30
2022-08-19T13:26:07.036Z,66.60
2022-08-19T13:28:53.939Z,64.20
2022-08-19T13:31:41.283Z,66.30
2022-08-19T13:34:09.807Z,66.70
2022-08-19T13:36:38.176Z,67.80
2022-08-19T13:39:06.457Z,66.70
2022-08-19T13:41:34.760Z,66.20
2022-08-19T13:44:02.722Z,66.60
2022-08-19T13:46:31.656Z,65.50
2022-08-19T13:48:58.439Z,67.10
2022-08-19T13:51:25.203Z,65.50
2022-08-19T13:53:51.931Z,69.10
2022-08-19T13:56:26.207Z,66.30
2022-08-19T13:58:54.560Z,66.70
2022-08-19T14:01:25.255Z,67.00
2022-08-19T14:03:52.392Z,65.70
2022-08-19T14:06:19.409Z,65.60
2022-08-19T14:08:47.364Z,65.00
2022-08-19T14:11:14.906Z,64.80
2022-08-19T14:13:41.999Z,66.30
2022-08-19T14:16:14.002Z,65.60
2022-08-19T14:18:41.506Z,65.60
2022-08-19T14:21:09.638Z,64.50
2022-08-19T14:23:37.212Z,65.60
2022-08-19T14:26:06.092Z,65.50
2022-08-19T14:28:33.388Z,66.30
2022-08-19T14:31:00.263Z,66.80
2022-08-19T14:33:28.443Z,66.50
2022-08-19T14:35:59.864Z,65.30
2022-08-19T14:38:31.652Z,66.50
2022-08-19T14:41:28.160Z,65.80
2022-08-19T14:43:55.477Z,66.20
2022-08-19T14:46:26.047Z,66.70
2022-08-19T14:48:56.061Z,65.60
2022-08-19T14:51:38.476Z,65.80
2022-08-19T14:54:05.581Z,66.50
2022-08-19T14:56:32.583Z,66.30
2022-08-19T14:59:01.894Z,67.20
2022-08-19T15:01:28.688Z,67.50
2022-08-19T15:03:55.833Z,66.30
2022-08-19T15:06:24.305Z,66.70
2022-08-19T15:08:52.686Z,66.90
2022-08-19T15:11:22.404Z,68.80
2022-08-19T15:13:50.926Z,69.30
2022-08-19T15:16:18.569Z,69.20
2022-08-19T15:18:46.432Z,69.90
2022-08-19T15:21:17.460Z,70.50
2022-08-19T15:23:54.641Z,70.50
2022-08-19T15:26:21.712Z,70.50
2022-08-19T15:28:48.565Z,70.60
2022-08-19T15:31:25.173Z,71.10
2022-08-19T15:33:58.427Z,71.30
2022-08-19T15:36:26.632Z,71.80
2022-08-19T15:38:53.463Z,71.50
2022-08-19T15:41:25.988Z,71.80
2022-08-19T15:44:01.987Z,72.50
2022-08-19T15:46:31.444Z,72.20
2022-08-19T15:49:00.024Z,71.40
2022-08-19T15:51:30.391Z,72.10
2022-08-19T15:53:58.312Z,72.50
2022-08-19T15:56:27.583Z,72.10
2022-08-19T15:59:32.751Z,72.50
2022-08-19T16:02:32.253Z,71.80
2022-08-19T16:05:17.566Z,71.60
2022-08-19T16:07:44.747Z,71.80
2022-08-19T16:10:25.877Z,71.90
2022-08-19T16:12:57.121Z,71.40
2022-08-19T16:15:28.058Z,71.70
2022-08-19T16:17:57.004Z,71.80
2022-08-19T16:20:26.382Z,72.30
2022-08-19T16:22:54.059Z,71.50
2022-08-19T16:25:21.369Z,72.00
2022-08-19T16:28:06.321Z,71.90
2022-08-19T16:30:36.224Z,72.40
2022-08-19T16:33:03.003Z,72.20
2022-08-19T16:35:29.925Z,72.20
2022-08-19T16:37:56.752Z,72.40
2022-08-19T16:40:24.008Z,72.50
2022-08-19T16:42:52.289Z,72.30
2022-08-19T16:45:19.587Z,73.10
2022-08-19T16:47:46.285Z,72.70
2022-08-19T16:50:13.034Z,73.50
2022-08-19T16:52:39.757Z,73.70
2022-08-19T16:55:08.403Z,73.60
2022-08-19T16:57:35.236Z,74.10
2022-08-19T17:00:08.904Z,75.20
2022-08-19T17:02:36.777Z,74.90
2022-08-19T17:05:05.985Z,75.30
2022-08-19T17:07:33.624Z,76.10
2022-08-19T17:10:02.423Z,77.20
2022-08-19T17:12:32.209Z,77.60
2022-08-19T17:15:02.964Z,77.70
2022-08-19T17:17:30.687Z,81.60
2022-08-19T17:19:59.202Z,82.80
2022-08-19T17:22:26.253Z,88.30
2022-08-19T17:24:52.963Z,92.80
2022-08-19T17:27:23.006Z,96.00
2022-08-19T17:29:49.705Z,99.20
2022-08-19T17:32:16.464Z,99.90
2022-08-19T17:34:51.611Z,99.90
2022-08-19T17:37:18.279Z,99.90
2022-08-19T17:39:45.007Z,99.90
2022-08-19T17:42:13.158Z,99.90
2022-08-19T17:44:40.855Z,99.90
2022-08-19T17:47:07.797Z,99.90
2022-08-19T17:49:34.778Z,99.90
2022-08-19T17:52:01.469Z,99.90
2022-08-19T17:54:33.197Z,99.90
2022-08-19T17:57:01.328Z,99.90
2022-08-19T17:59:30.315Z,99.90
2022-08-19T18:01:57.873Z,99.90
2022-08-19T18:04:26.049Z,99.90
2022-08-19T18:06:55.038Z,99.90
2022-08-19T18:09:24.166Z,99.90
2022-08-19T18:11:52.974Z,99.90
2022-08-19T18:14:32.873Z,99.90
2022-08-19T18:17:09.692Z,99.90
2022-08-19T18:19:43.318Z,99.90
2022-08-19T18:22:22.381Z,99.90
2022-08-19T18:24:49.213Z,99.90
2022-08-19T18:27:15.912Z,99.90
2022-08-19T18:29:43.376Z,99.90
2022-08-19T18:32:13.374Z,99.90
2022-08-19T18:34:42.201Z,99.90
2022-08-19T18:37:09.482Z,99.90
2022-08-19T18:39:55.534Z,99.90
2022-08-19T18:42:42.654Z,99.90
2022-08-19T18:45:29.253Z,99.90
2022-08-19T18:48:27.096Z,99.90
2022-08-19T18:50:56.958Z,99.90
2022-08-19T18:53:24.749Z,99.90
2022-08-19T18:55:55.357Z,99.90
2022-08-19T18:58:26.679Z,99.90
2022-08-19T19:00:56.883Z,99.90
2022-08-19T19:03:26.806Z,99.90
2022-08-19T19:05:54.165Z,99.90
2022-08-19T19:08:27.170Z,99.90
2022-08-19T19:10:54.747Z,99.90
2022-08-19T19:13:21.588Z,99.90
2022-08-19T19:15:49.659Z,99.90
2022-08-19T19:18:16.506Z,99.90
2022-08-19T19:20:43.324Z,99.90
2022-08-19T19:23:10.197Z,99.90
2022-08-19T19:25:49.546Z,99.90
2022-08-19T19:28:25.460Z,99.90
2022-08-19T19:30:54.339Z,99.90
2022-08-19T19:33:22.806Z,99.90
2022-08-19T19:35:49.710Z,99.90
2022-08-19T19:38:16.542Z,99.90
2022-08-19T19:40:45.594Z,99.90
2022-08-19T19:43:12.869Z,99.90
2022-08-19T19:45:39.703Z,99.90
2022-08-19T19:48:06.668Z,99.90
2022-08-19T19:50:33.567Z,99.90
2022-08-19T19:53:00.669Z,99.90
2022-08-19T19:55:29.176Z,99.90
2022-08-19T19:57:57.785Z,99.90
2022-08-19T20:00:25.482Z,99.90
2022-08-19T20:02:56.020Z,99.90
2022-08-19T20:05:24.094Z,99.90
2022-08-19T20:08:11.079Z,99.90
2022-08-19T20:10:39.128Z,99.90
2022-08-19T20:13:08.286Z,99.90
2022-08-19T20:15:40.341Z,99.90
2022-08-19T20:18:12.280Z,99.90
2022-08-19T20:20:40.005Z,99.90
2022-08-19T20:23:07.576Z,99.90
2022-08-19T20:25:34.647Z,99.90
2022-08-19T20:28:01.605Z,99.90
2022-08-19T20:30:31.078Z,99.90
2022-08-19T20:33:00.455Z,99.90
2022-08-19T20:35:31.756Z,99.90
2022-08-19T20:38:03.428Z,99.90
2022-08-19T20:40:31.212Z,99.90
2022-08-19T20:42:58.021Z,99.90
2022-08-19T20:45:33.052Z,99.90
2022-08-19T20:48:02.993Z,99.90
2022-08-19T20:50:31.191Z,99.90
2022-08-19T20:52:58.480Z,99.90
2022-08-19T20:55:26.984Z,99.90
2022-08-19T20:57:55.134Z,99.90
2022-08-19T21:00:22.140Z,99.90
2022-08-19T21:02:49.001Z,99.90
2022-08-19T21:05:15.875Z,99.90
2022-08-19T21:07:42.709Z,99.90
2022-08-19T21:10:09.593Z,99.90
2022-08-19T21:12:36.448Z,99.90
2022-08-19T21:15:03.753Z,99.90
2022-08-19T21:17:30.545Z,99.90
2022-08-19T21:19:57.276Z,99.90
2022-08-19T21:22:23.958Z,99.90
2022-08-19T21:24:50.745Z,99.90
2022-08-19T21:27:18.691Z,99.90
2022-08-19T21:29:45.419Z,99.90
2022-08-19T21:32:14.472Z,99.90
2022-08-19T21:34:43.664Z,99.90
2022-08-19T21:37:19.040Z,99.90
2022-08-19T21:39:53.446Z,99.90
2022-08-19T21:42:20.613Z,99.90
2022-08-19T21:44:47.538Z,99.90
2022-08-19T21:47:15.353Z,99.90
2022-08-19T21:49:43.685Z,99.90
2022-08-19T21:52:10.526Z,99.90
2022-08-19T21:54:38.136Z,99.90
2022-08-19T21:57:07.111Z,99.90
2022-08-19T21:59:43.524Z,99.90
2022-08-19T22:02:21.058Z,99.90
2022-08-19T22:04:48.978Z,99.90
2022-08-19T22:07:17.191Z,99.90
2022-08-19T22:09:46.466Z,99.90
2022-08-19T22:12:25.939Z,99.90
2022-08-19T22:14:53.620Z,99.90
2022-08-19T22:17:23.041Z,99.90
2022-08-19T22:19:52.589Z,99.90
2022-08-19T22:22:24.454Z,99.90
2022-08-19T22:24:53.109Z,99.90
2022-08-19T22:27:20.648Z,99.90
2022-08-19T22:29:47.670Z,99.90
2022-08-19T22:32:27.106Z,99.90
2022-08-19T22:34:58.533Z,99.90
2022-08-19T22:37:26.057Z,99.90
2022-08-19T22:39:52.841Z,99.90
2022-08-19T22:42:23.282Z,99.90
2022-08-19T22:44:50.356Z,99.90
2022-08-19T22:47:17.524Z,99.90
2022-08-19T22:49:45.086Z,99.90
2022-08-19T22:52:17.259Z,99.90
2022-08-19T22:54:51.103Z,99.90
2022-08-19T22:57:19.879Z,99.90
2022-08-19T22:59:48.384Z,99.90
2022-08-19T23:02:21.514Z,99.90
2022-08-19T23:04:49.088Z,99.90
2022-08-19T23:07:16.991Z,99.90
2022-08-19T23:09:44.121Z,99.90
2022-08-19T23:12:14.189Z,99.90
2022-08-19T23:14:42.777Z,99.90
2022-08-19T23:17:10.840Z,99.90
2022-08-19T23:19:38.503Z,99.90
2022-08-19T23:22:07.542Z,99.90
2022-08-19T23:24:34.314Z,99.90
2022-08-19T23:27:20.646Z,99.90
2022-08-19T23:30:05.816Z,99.90
2022-08-19T23:32:35.857Z,99.90
2022-08-19T23:35:02.652Z,99.90
2022-08-19T23:37:29.364Z,99.90
2022-08-19T23:39:56.108Z,99.90
2022-08-19T23:42:23.699Z,99.90
2022-08-19T23:44:52.319Z,99.90
2022-08-19T23:47:20.492Z,99.90
2022-08-19T23:49:48.651Z,99.90
2022-08-19T23:52:15.425Z,99.90
2022-08-19T23:54:43.005Z,99.90
2022-08-19T23:57:14.709Z,99.90
2022-08-19T23:59:42.771Z,99.90
